Scroll down
FLIGHT INFORMATION
Federal Express (FedEx)

FDX9846

At Arrival Gate

EGLL
 LIMC
DATE: 2021-07-04
GATE: 561
GATE DEPARTURE: 18:55
TAKEOFF: 19:04
DATE: 2021-07-04
GATE:  -
LANDING: 20:28
GATE ARRIVAL: 20:36
FLIGHT DATA
Crew: 
Speed: 
498 kts
Altitude: 
39,018 ft
Stage Length: 
505.7 nm
Block Time: 
1.6 hrs
Flight Time: 
1.4 hrs
Fuel Used: 
19,397 lb
Cleared Route: EGLL MAXIT MID BOGNA BENBO HAWKE XAMAB VEULE INPAX RESMI TEPRI POGZI FUZKA WERZU GELTA MELKO LUVAL LANVI EPL LASAT DEVDI RIPUS GERSA SOSON DEGAD BASGO AKASU RIXUV LIMC
TRACK DATA
50,000 ft 1,000 kts
AIRCRAFT INFO AND CUMULATIVE STATS
Aircraft Type: 
B77LF
Registration: 
SELCAL: 
MSN/LN: 
66256 / 1665
Total Flights: 
3
Total Block Time: 
14.9 hrs
Total Flight Time: 
14.1 hrs
Total Fuel Used: 
324,875 lb
DATALINK LOG | Newest first | Current as of: 2022-05-16 09:25:13
LABEL SEQUENCE CONTENT Dn/Up
QD302720:36 23.4▼ Dn
QC232020:28▼ Dn
2U4043LIMC 050120Z 35007KT CAVOK 16/16 Q1011 NOSIG▲ Up
2S4043LIMC▼ Dn
QB062219:04▼ Dn
QA581518:55 42.9▼ Dn
2U4707LIMC 042320Z 35005KT CAVOK 16/16 Q1011 NOSIG▲ Up
2U4706EGLL 042320Z AUTO 21008KT 9999 SCT019 SCT037 BKN044 15/14 Q1006▲ Up
2U4706EDDF 042320Z 20005KT CAVOK 15/14 Q1012 NOSIG▲ Up
2S4705EGLL LIMC EDDF▼ Dn
Q04705[LINK ACK]▲ Up
Q04705[LINK TEST]▼ Dn
A33907CLEARED TO LIMC VIA MAXI1F MAXIT Y803 MID UL612 RESMI UN491 LASAT DEVDI RIPUS N850 DEGAD Z424 RIXUV RIXU2E. SQUAWK 1740.▲ Up
B33857EGLL LIMC FDX9846 N846FD ▼ Dn
A73555CLEARANCE AVAIL WITHIN 0:25 OF EDT▲ Up
B33555EGLL LIMC FDX9846 N846FD ▼ Dn
A73252CLEARANCE AVAIL WITHIN 0:25 OF EDT▲ Up
B33252EGLL LIMC FDX9846 N846FD ▼ Dn
2U2952LIMC 042320Z 35005KT CAVOK 16/16 Q1011 NOSIG▲ Up
2U2951EGLL 042320Z AUTO 21008KT 9999 SCT019 SCT037 BKN044 15/14 Q1006▲ Up
2U2951EDDF 042320Z 20005KT CAVOK 15/14 Q1012 NOSIG▲ Up
2S2950EGLL LIMC EDDF▼ Dn
A72950CLEARANCE AVAIL WITHIN 0:25 OF EDT▲ Up
B32950EGLL LIMC FDX9846 N846FD ▼ Dn
Q02647[LINK ACK]▲ Up
Q02647[LINK TEST]▼ Dn


AIRCRAFT HISTORY
FLIGHT DATE FLIGHT NO. ORIGIN DESTINATION CLEARED ROUTE BLOCK TIME FLIGHT TIME FUEL USED PILOT
2021-07-04FDX9846EGLL LIMC EGLL MAXIT MID BOGNA BENBO HAWKE XAMAB VEULE INPAX RESMI TEPRI POGZI FUZKA WERZU GELTA MELKO LUVAL LANVI EPL LASAT DEVDI RIPUS GERSA SOSON DEGAD BASGO AKASU RIXUV LIMC1.6 hrs1.4 hrs19,397 lbAllan Burek
2021-05-01FDX501KSEA EGLL KSEA ALPSE IWACK CFKNF FOLDY YDC LONRO YZU YMM 6130N10000W 6430N09000W 6780N 6830N07000W BOPUT 6960N 6950N 6840N 6530N 6120N AGORI OSBOX MIMKU ERNAN BOFUM BAKOX BAVUD DONAX MALUD VOLFI NUGRA TOBID SOPIT WCONB BNN RW09R9.2 hrs8.7 hrs257,942 lbRandall Smith
2021-02-14FDX214KMEM KSEA KMEM BEEAL PRYMD HIVUS STVVV ZUMIT FOXOM KM36I KK45G KK54E ATIJA KP60C AYOLE KD69Y KD72W KU78S KU84O KU87M KU90K KS03I PDT BRUKK SUNED YKM CHINS RADDY HUMPP AUBRN KENMO RW16L4.1 hrs3.9 hrs47,536 lbRandall Smith